createdAt,value
2023-03-18T00:05:01.386Z,5.10
2023-03-18T00:10:30.703Z,5.30
2023-03-18T00:15:56.798Z,5.00
2023-03-18T00:21:23.434Z,4.80
2023-03-18T00:26:49.778Z,5.10
2023-03-18T00:32:15.892Z,4.60
2023-03-18T00:37:41.505Z,4.60
2023-03-18T00:43:07.660Z,4.20
2023-03-18T00:48:23.991Z,4.20
2023-03-18T00:53:49.677Z,4.90
2023-03-18T00:59:16.434Z,4.40
2023-03-18T01:04:42.158Z,4.80
2023-03-18T01:10:08.566Z,4.30
2023-03-18T01:15:37.287Z,4.90
2023-03-18T01:21:03.513Z,4.40
2023-03-18T01:26:29.308Z,4.90
2023-03-18T01:31:55.734Z,4.40
2023-03-18T01:42:47.255Z,4.00
2023-03-18T01:48:13.214Z,4.20
2023-03-18T01:53:40.491Z,4.90
2023-03-18T01:59:12.811Z,4.10
2023-03-18T02:04:40.726Z,4.40
2023-03-18T02:15:36.565Z,4.00
2023-03-18T02:21:19.382Z,4.70
2023-03-18T02:26:51.872Z,4.00
2023-03-18T02:32:12.070Z,4.00
2023-03-18T02:37:38.142Z,3.80
2023-03-18T02:43:07.589Z,4.10
2023-03-18T02:48:39.177Z,3.90
2023-03-18T02:54:05.437Z,3.90
2023-03-18T02:59:32.336Z,4.90
2023-03-18T03:04:58.035Z,4.40
2023-03-18T03:10:25.531Z,4.20
2023-03-18T03:15:51.762Z,4.10
2023-03-18T03:21:20.690Z,4.30
2023-03-18T03:26:46.681Z,5.70
2023-03-18T03:32:12.384Z,3.70
2023-03-18T03:37:38.310Z,4.40
2023-03-18T03:43:04.754Z,4.10
2023-03-18T03:48:30.658Z,4.60
2023-03-18T03:53:49.474Z,4.00
2023-03-18T03:59:15.110Z,4.40
2023-03-18T04:04:40.815Z,4.80
2023-03-18T04:10:06.818Z,4.10
2023-03-18T04:15:35.905Z,4.40
2023-03-18T04:21:02.350Z,5.00
2023-03-18T04:26:28.134Z,4.90
2023-03-18T04:31:54.061Z,5.30
2023-03-18T04:37:19.823Z,5.80
2023-03-18T04:42:45.589Z,5.90
2023-03-18T04:48:11.270Z,6.10
2023-03-18T04:53:37.210Z,5.20
2023-03-18T04:59:02.898Z,4.50
2023-03-18T05:04:28.614Z,4.40
2023-03-18T05:09:54.887Z,4.20
2023-03-18T05:15:07.756Z,4.20
2023-03-18T05:20:14.910Z,4.40
2023-03-18T05:25:41.715Z,4.80
2023-03-18T05:31:07.375Z,4.20
2023-03-18T05:36:33.409Z,4.40
2023-03-18T05:41:42.082Z,4.10
2023-03-18T05:46:57.882Z,3.60
2023-03-18T05:52:24.302Z,5.00
2023-03-18T05:57:30.000Z,4.80
2023-03-18T06:02:37.881Z,5.10
2023-03-18T06:08:03.630Z,4.40
2023-03-18T06:13:19.133Z,4.30
2023-03-18T06:18:24.536Z,3.80
2023-03-18T06:23:50.224Z,4.60
2023-03-18T06:29:01.083Z,4.40
2023-03-18T06:34:17.773Z,4.30
2023-03-18T06:39:28.313Z,4.30
2023-03-18T06:44:44.635Z,4.50
2023-03-18T06:49:51.105Z,4.80
2023-03-18T06:55:02.022Z,4.50
2023-03-18T07:00:10.767Z,4.20
2023-03-18T07:05:17.311Z,4.30
2023-03-18T07:10:29.189Z,4.50
2023-03-18T07:15:35.238Z,4.70
2023-03-18T07:20:42.077Z,4.90
2023-03-18T07:25:50.226Z,5.20
2023-03-18T07:30:55.774Z,5.10
2023-03-18T07:36:01.858Z,4.20
2023-03-18T07:41:13.242Z,5.00
2023-03-18T07:46:18.928Z,4.70
2023-03-18T07:51:24.797Z,4.50
2023-03-18T07:56:30.503Z,5.20
2023-03-18T08:01:36.448Z,4.30
2023-03-18T08:06:44.994Z,4.60
2023-03-18T08:11:50.858Z,4.50
2023-03-18T08:17:16.469Z,5.20
2023-03-18T08:22:25.553Z,4.70
2023-03-18T08:27:31.090Z,4.40
2023-03-18T08:32:39.245Z,4.60
2023-03-18T08:37:48.108Z,4.90
2023-03-18T08:42:56.689Z,3.90
2023-03-18T08:48:02.194Z,5.00
2023-03-18T08:53:10.378Z,4.60
2023-03-18T08:58:19.546Z,4.70
2023-03-18T09:03:32.489Z,4.80
2023-03-18T09:08:40.175Z,4.80
2023-03-18T09:13:46.149Z,4.20
2023-03-18T09:18:51.949Z,4.70
2023-03-18T09:24:00.059Z,4.40
2023-03-18T09:29:07.802Z,4.50
2023-03-18T09:34:14.591Z,5.20
2023-03-18T09:39:21.130Z,5.60
2023-03-18T09:44:30.007Z,4.40
2023-03-18T09:49:49.686Z,3.80
2023-03-18T09:55:02.712Z,4.80
2023-03-18T10:00:24.348Z,3.90
2023-03-18T10:10:56.746Z,4.00
2023-03-18T10:16:15.779Z,4.60
2023-03-18T10:21:33.414Z,4.40
2023-03-18T10:26:47.362Z,4.30
2023-03-18T10:32:08.479Z,5.60
2023-03-18T10:42:33.858Z,3.90
2023-03-18T10:47:47.517Z,4.70
2023-03-18T10:53:01.988Z,4.30
2023-03-18T10:58:25.184Z,4.10
2023-03-18T11:03:35.709Z,4.20
2023-03-18T11:08:41.874Z,4.80
2023-03-18T11:13:53.177Z,4.30
2023-03-18T11:19:09.222Z,4.20
2023-03-18T11:24:36.569Z,4.10
2023-03-18T11:29:47.193Z,4.50
2023-03-18T11:34:58.992Z,3.70
2023-03-18T11:40:31.136Z,3.70
2023-03-18T11:45:47.240Z,4.00
2023-03-18T11:51:08.446Z,4.00
2023-03-18T11:56:44.153Z,4.10
2023-03-18T12:02:00.353Z,3.80
2023-03-18T12:07:46.388Z,3.50
2023-03-18T12:13:14.036Z,2.60
2023-03-18T12:18:37.604Z,3.20
2023-03-18T12:24:05.725Z,2.70
2023-03-18T12:29:59.358Z,3.10
2023-03-18T12:35:21.221Z,3.00
2023-03-18T12:40:48.120Z,2.70
2023-03-18T12:46:03.608Z,2.90
2023-03-18T12:51:16.502Z,3.00
2023-03-18T12:56:30.759Z,2.90
2023-03-18T13:01:49.285Z,3.70
2023-03-18T13:07:15.983Z,2.80
2023-03-18T13:12:29.849Z,2.60
2023-03-18T13:17:42.575Z,2.40
2023-03-18T13:23:11.439Z,2.80
2023-03-18T13:28:38.956Z,2.60
2023-03-18T13:34:19.634Z,3.20
2023-03-18T13:39:48.032Z,2.80
2023-03-18T13:45:05.668Z,3.00
2023-03-18T13:50:32.382Z,2.10
2023-03-18T13:55:47.535Z,2.40
2023-03-18T14:01:32.539Z,2.80
2023-03-18T14:07:11.675Z,3.00
2023-03-18T14:12:24.032Z,3.10
2023-03-18T14:17:53.153Z,3.40
2023-03-18T14:24:07.629Z,2.80
2023-03-18T14:29:27.883Z,2.60
2023-03-18T14:34:40.142Z,3.30
2023-03-18T14:39:55.005Z,3.00
2023-03-18T14:45:06.837Z,2.70
2023-03-18T14:50:23.022Z,3.20
2023-03-18T14:55:34.916Z,2.90
2023-03-18T15:00:40.717Z,3.00
2023-03-18T15:06:08.036Z,3.40
2023-03-18T15:11:16.857Z,3.00
2023-03-18T15:16:25.316Z,3.50
2023-03-18T15:21:34.979Z,3.10
2023-03-18T15:26:54.775Z,3.50
2023-03-18T15:32:36.631Z,3.40
2023-03-18T15:37:46.471Z,3.60
2023-03-18T15:42:54.297Z,3.90
2023-03-18T15:48:12.669Z,3.10
2023-03-18T15:53:23.556Z,2.70
2023-03-18T15:58:45.137Z,2.80
2023-03-18T16:09:00.469Z,2.60
2023-03-18T16:14:26.390Z,2.80
2023-03-18T16:19:34.446Z,2.80
2023-03-18T16:24:41.679Z,2.70
2023-03-18T16:29:48.547Z,3.00
2023-03-18T16:34:54.216Z,2.50
2023-03-18T16:40:04.073Z,2.70
2023-03-18T16:45:18.320Z,2.60
2023-03-18T16:50:32.906Z,2.30
2023-03-18T16:55:47.237Z,1.70
2023-03-18T17:00:58.497Z,1.70
2023-03-18T17:06:04.629Z,1.70
2023-03-18T17:11:18.231Z,1.70
2023-03-18T17:16:25.920Z,1.50
2023-03-18T17:21:32.132Z,1.40
2023-03-18T17:26:37.657Z,1.50
2023-03-18T17:31:48.327Z,1.30
2023-03-18T17:36:54.281Z,1.80
2023-03-18T17:42:04.929Z,1.40
2023-03-18T17:47:11.521Z,1.90
2023-03-18T17:52:21.072Z,2.90
2023-03-18T17:57:38.234Z,20.90
2023-03-18T18:02:43.868Z,14.80
2023-03-18T18:07:53.689Z,17.10
2023-03-18T18:13:01.837Z,15.90
2023-03-18T18:18:24.302Z,13.30
2023-03-18T18:23:37.328Z,11.40
2023-03-18T18:28:44.895Z,10.60
2023-03-18T18:34:00.150Z,11.60
2023-03-18T18:39:06.127Z,9.50
2023-03-18T18:44:12.211Z,10.40
2023-03-18T18:49:22.701Z,13.50
2023-03-18T18:54:30.650Z,10.40
2023-03-18T18:59:39.124Z,18.30
2023-03-18T19:04:44.901Z,20.90
2023-03-18T19:09:56.607Z,14.30
2023-03-18T19:15:04.790Z,14.40
2023-03-18T19:20:26.111Z,15.60
2023-03-18T19:25:32.144Z,11.90
2023-03-18T19:30:38.193Z,10.10
2023-03-18T19:35:44.324Z,10.00
2023-03-18T19:40:55.365Z,9.90
2023-03-18T19:46:01.094Z,10.50
2023-03-18T19:51:19.601Z,33.80
2023-03-18T19:56:49.034Z,15.00
2023-03-18T20:01:54.929Z,21.40
2023-03-18T20:07:09.422Z,12.40
2023-03-18T20:12:28.344Z,35.90
2023-03-18T20:17:58.609Z,46.60
2023-03-18T20:23:25.230Z,42.40
2023-03-18T20:28:30.940Z,52.20
2023-03-18T20:33:47.716Z,57.20
2023-03-18T20:38:55.230Z,39.30
2023-03-18T20:44:10.691Z,15.60
2023-03-18T20:49:16.240Z,16.50
2023-03-18T20:54:47.808Z,28.10
2023-03-18T20:59:56.921Z,15.20
2023-03-18T21:05:23.622Z,11.50
2023-03-18T21:10:38.198Z,18.80
2023-03-18T21:15:54.526Z,16.40
2023-03-18T21:21:06.774Z,13.70
2023-03-18T21:26:26.181Z,13.20
2023-03-18T21:31:39.309Z,11.90
2023-03-18T21:36:50.332Z,12.60
2023-03-18T21:42:05.663Z,11.10
2023-03-18T21:47:15.979Z,10.90
2023-03-18T21:52:51.737Z,10.50
2023-03-18T21:58:18.134Z,10.40
2023-03-18T22:03:45.560Z,11.20
2023-03-18T22:09:11.226Z,12.80
2023-03-18T22:14:37.100Z,11.50
2023-03-18T22:19:42.516Z,10.20
2023-03-18T22:25:09.103Z,10.30
2023-03-18T22:30:35.979Z,9.60
2023-03-18T22:36:01.714Z,9.70
2023-03-18T22:41:35.214Z,9.70
2023-03-18T22:47:00.888Z,10.10
2023-03-18T22:52:28.321Z,11.80
2023-03-18T22:57:46.837Z,12.80
2023-03-18T23:03:06.348Z,10.80
2023-03-18T23:08:31.996Z,11.00
2023-03-18T23:13:55.310Z,12.20
2023-03-18T23:19:21.325Z,12.70
2023-03-18T23:24:47.010Z,12.40
2023-03-18T23:30:12.789Z,14.00
2023-03-18T23:35:38.635Z,12.40
2023-03-18T23:40:43.972Z,12.20
2023-03-18T23:45:49.718Z,11.50
2023-03-18T23:50:55.175Z,13.40
2023-03-18T23:56:00.648Z,13.30
